createdAt,value
2023-03-22T00:00:07.183Z,18.47
2023-03-22T00:02:35.577Z,19.10
2023-03-22T00:05:04.197Z,21.37
2023-03-22T00:07:34.376Z,18.27
2023-03-22T00:10:03.122Z,18.70
2023-03-22T00:12:31.627Z,18.70
2023-03-22T00:15:00.138Z,19.53
2023-03-22T00:17:28.420Z,20.23
2023-03-22T00:19:56.485Z,22.57
2023-03-22T00:22:25.697Z,19.57
2023-03-22T00:24:55.402Z,20.00
2023-03-22T00:27:23.484Z,19.30
2023-03-22T00:29:53.688Z,19.27
2023-03-22T00:32:21.983Z,18.97
2023-03-22T00:34:51.292Z,21.77
2023-03-22T00:37:19.440Z,20.30
2023-03-22T00:39:47.659Z,20.20
2023-03-22T00:42:18.390Z,22.10
2023-03-22T00:44:49.706Z,18.87
2023-03-22T00:47:18.044Z,19.60
2023-03-22T00:49:46.169Z,21.87
2023-03-22T00:52:14.301Z,19.70
2023-03-22T00:54:42.476Z,21.47
2023-03-22T00:57:10.744Z,21.93
2023-03-22T00:59:40.509Z,21.00
2023-03-22T01:02:09.504Z,20.83
2023-03-22T01:04:37.766Z,23.33
2023-03-22T01:07:07.757Z,20.90
2023-03-22T01:09:37.544Z,21.27
2023-03-22T01:12:05.837Z,21.57
2023-03-22T01:14:34.147Z,24.87
2023-03-22T01:17:03.859Z,22.77
2023-03-22T01:19:32.366Z,23.20
2023-03-22T01:22:00.707Z,23.60
2023-03-22T01:24:29.079Z,22.97
2023-03-22T01:26:57.193Z,24.17
2023-03-22T01:29:25.596Z,24.57
2023-03-22T01:31:54.048Z,21.93
2023-03-22T01:34:23.619Z,25.73
2023-03-22T01:36:51.874Z,26.20
2023-03-22T01:39:20.517Z,22.80
2023-03-22T01:41:51.415Z,23.67
2023-03-22T01:44:22.297Z,25.30
2023-03-22T01:46:53.665Z,23.53
2023-03-22T01:49:27.678Z,24.40
2023-03-22T01:51:58.795Z,21.00
2023-03-22T01:54:50.030Z,24.23
2023-03-22T01:57:39.315Z,23.87
2023-03-22T02:00:18.891Z,22.97
2023-03-22T02:05:58.639Z,22.53
2023-03-22T02:08:27.701Z,21.63
2023-03-22T02:11:15.974Z,23.80
2023-03-22T02:14:16.591Z,22.77
2023-03-22T02:17:31.638Z,21.73
2023-03-22T02:20:39.903Z,24.23
2023-03-22T02:23:35.508Z,22.57
2023-03-22T02:26:44.051Z,21.60
2023-03-22T02:29:19.236Z,25.00
2023-03-22T02:32:12.454Z,24.73
2023-03-22T02:35:11.065Z,25.07
2023-03-22T02:37:57.613Z,24.07
2023-03-22T02:40:33.043Z,21.70
2023-03-22T02:43:10.338Z,24.27
2023-03-22T02:45:46.052Z,21.97
2023-03-22T02:48:18.862Z,22.63
2023-03-22T02:50:52.626Z,21.90
2023-03-22T02:53:25.597Z,21.13
2023-03-22T02:55:59.367Z,20.73
2023-03-22T02:58:30.412Z,25.30
2023-03-22T03:01:05.705Z,23.50
2023-03-22T03:03:39.592Z,23.37
2023-03-22T03:06:14.428Z,20.40
2023-03-22T03:08:43.549Z,22.77
2023-03-22T03:11:13.471Z,23.17
2023-03-22T03:13:41.966Z,20.97
2023-03-22T03:16:17.557Z,21.73
2023-03-22T03:18:52.388Z,20.70
2023-03-22T03:21:32.596Z,21.13
2023-03-22T03:24:18.523Z,21.20
2023-03-22T03:26:56.431Z,20.17
2023-03-22T03:29:34.130Z,20.87
2023-03-22T03:32:07.415Z,20.87
2023-03-22T03:34:43.517Z,20.30
2023-03-22T03:37:15.825Z,21.27
2023-03-22T03:39:49.093Z,21.33
2023-03-22T03:42:19.505Z,23.43
2023-03-22T03:44:47.660Z,22.40
2023-03-22T03:47:17.116Z,21.33
2023-03-22T03:49:47.020Z,19.50
2023-03-22T03:52:15.660Z,19.80
2023-03-22T03:54:43.763Z,18.37
2023-03-22T03:57:16.632Z,19.20
2023-03-22T03:59:46.092Z,17.80
2023-03-22T04:02:25.392Z,20.37
2023-03-22T04:04:55.193Z,18.67
2023-03-22T04:07:23.271Z,21.37
2023-03-22T04:09:51.274Z,19.70
2023-03-22T04:12:29.402Z,18.93
2023-03-22T04:15:13.973Z,19.70
2023-03-22T04:17:44.074Z,20.43
2023-03-22T04:20:13.861Z,19.73
2023-03-22T04:22:42.568Z,18.63
2023-03-22T04:25:12.665Z,19.97
2023-03-22T04:27:50.979Z,18.73
2023-03-22T04:30:22.810Z,18.90
2023-03-22T04:33:06.797Z,18.10
2023-03-22T04:35:58.379Z,19.50
2023-03-22T04:38:34.406Z,21.60
2023-03-22T04:41:02.658Z,19.93
2023-03-22T04:43:39.223Z,18.97
2023-03-22T04:46:12.715Z,20.50
2023-03-22T04:48:48.700Z,17.77
2023-03-22T04:51:17.915Z,19.03
2023-03-22T04:54:03.693Z,17.90
2023-03-22T04:56:31.847Z,21.07
2023-03-22T04:59:00.020Z,17.17
2023-03-22T05:01:30.555Z,17.77
2023-03-22T05:04:09.866Z,16.90
2023-03-22T05:06:38.625Z,19.03
2023-03-22T05:09:13.178Z,15.87
2023-03-22T05:11:41.715Z,22.47
2023-03-22T05:14:29.606Z,19.07
2023-03-22T05:16:59.162Z,16.73
2023-03-22T05:19:27.762Z,21.87
2023-03-22T05:21:58.294Z,20.27
2023-03-22T05:24:38.018Z,20.73
2023-03-22T05:27:06.649Z,17.63
2023-03-22T05:29:36.951Z,18.33
2023-03-22T05:32:18.353Z,19.23
2023-03-22T05:34:48.423Z,17.10
2023-03-22T05:37:25.394Z,18.53
2023-03-22T05:39:56.392Z,18.03
2023-03-22T05:42:32.644Z,18.37
2023-03-22T05:45:02.905Z,18.20
2023-03-22T05:47:33.940Z,19.47
2023-03-22T05:50:13.176Z,17.93
2023-03-22T05:52:42.729Z,16.30
2023-03-22T05:55:30.231Z,16.67
2023-03-22T05:58:01.280Z,18.37
2023-03-22T06:00:32.054Z,18.53
2023-03-22T06:03:20.246Z,17.27
2023-03-22T06:05:55.805Z,18.07
2023-03-22T06:08:35.744Z,16.80
2023-03-22T06:11:04.069Z,15.90
2023-03-22T06:13:32.408Z,13.43
2023-03-22T06:16:01.032Z,15.00
2023-03-22T06:18:30.992Z,13.67
2023-03-22T06:21:05.791Z,12.03
2023-03-22T06:23:33.869Z,14.50
2023-03-22T06:26:01.987Z,14.83
2023-03-22T06:28:31.251Z,12.73
2023-03-22T06:31:07.325Z,15.47
2023-03-22T06:33:45.519Z,15.23
2023-03-22T06:36:35.723Z,16.90
2023-03-22T06:39:10.368Z,14.13
2023-03-22T06:41:39.509Z,14.20
2023-03-22T06:44:07.685Z,14.43
2023-03-22T06:46:53.832Z,16.43
2023-03-22T06:49:43.504Z,14.03
2023-03-22T06:52:17.248Z,12.43
2023-03-22T06:54:45.421Z,12.73
2023-03-22T06:57:13.647Z,15.07
2023-03-22T06:59:41.671Z,13.80
2023-03-22T07:02:13.170Z,16.90
2023-03-22T07:04:46.676Z,16.63
2023-03-22T07:07:15.414Z,14.90
2023-03-22T07:09:43.493Z,16.63
2023-03-22T07:12:11.545Z,14.97
2023-03-22T07:14:39.968Z,17.47
2023-03-22T07:17:29.103Z,13.63
2023-03-22T07:19:59.019Z,18.13
2023-03-22T07:22:27.286Z,16.97
2023-03-22T07:24:59.367Z,16.67
2023-03-22T07:27:30.538Z,15.60
2023-03-22T07:29:58.827Z,16.83
2023-03-22T07:32:26.968Z,13.97
2023-03-22T07:35:10.056Z,15.80
2023-03-22T07:37:38.181Z,16.87
2023-03-22T07:40:12.980Z,17.07
2023-03-22T07:42:41.117Z,16.20
2023-03-22T07:45:24.102Z,14.30
2023-03-22T07:48:15.499Z,14.47
2023-03-22T07:51:03.472Z,14.77
2023-03-22T07:53:32.025Z,17.87
2023-03-22T07:56:00.194Z,16.30
2023-03-22T07:58:28.264Z,17.83
2023-03-22T08:01:00.492Z,15.90
2023-03-22T08:03:57.918Z,16.43
2023-03-22T08:06:46.454Z,18.23
2023-03-22T08:09:14.549Z,16.37
2023-03-22T08:11:42.817Z,15.87
2023-03-22T08:14:11.235Z,16.80
2023-03-22T08:16:41.619Z,13.53
2023-03-22T08:19:09.798Z,14.67
2023-03-22T08:21:39.019Z,15.93
2023-03-22T08:24:15.593Z,14.87
2023-03-22T08:26:52.011Z,12.93
2023-03-22T08:29:30.135Z,17.10
2023-03-22T08:32:02.149Z,14.43
2023-03-22T08:34:31.227Z,12.70
2023-03-22T08:36:59.358Z,13.67
2023-03-22T08:39:28.854Z,14.07
2023-03-22T08:42:08.882Z,12.03
2023-03-22T08:44:37.828Z,14.37
2023-03-22T08:47:06.586Z,11.13
2023-03-22T08:49:35.664Z,11.13
2023-03-22T08:52:11.467Z,10.80
2023-03-22T08:54:59.453Z,11.10
2023-03-22T08:57:50.271Z,11.20
2023-03-22T09:00:47.669Z,14.37
2023-03-22T09:03:34.925Z,12.03
2023-03-22T09:06:03.173Z,10.73
2023-03-22T09:08:36.553Z,10.23
2023-03-22T09:11:15.260Z,13.40
2023-03-22T09:13:44.689Z,9.53
2023-03-22T09:16:14.110Z,9.17
2023-03-22T09:18:44.234Z,10.40
2023-03-22T09:21:17.024Z,9.17
2023-03-22T09:23:52.802Z,10.70
2023-03-22T09:26:27.145Z,10.67
2023-03-22T09:28:56.318Z,9.40
2023-03-22T09:31:24.442Z,12.67
2023-03-22T09:34:03.869Z,10.80
2023-03-22T09:36:34.258Z,11.30
2023-03-22T09:39:06.560Z,9.73
2023-03-22T09:41:40.144Z,9.30
2023-03-22T09:44:14.209Z,12.03
2023-03-22T09:46:45.599Z,7.40
2023-03-22T09:49:18.661Z,13.47
2023-03-22T09:51:49.651Z,9.73
2023-03-22T09:54:21.549Z,9.83
2023-03-22T09:56:55.796Z,9.27
2023-03-22T09:59:34.601Z,9.87
2023-03-22T10:02:06.139Z,10.30
2023-03-22T10:04:50.186Z,8.27
2023-03-22T10:07:28.799Z,9.07
2023-03-22T10:10:07.203Z,9.87
2023-03-22T10:12:42.808Z,7.87
2023-03-22T10:15:15.668Z,7.80
2023-03-22T10:17:47.549Z,9.70
2023-03-22T10:20:25.434Z,8.37
2023-03-22T10:22:57.079Z,9.43
2023-03-22T10:25:32.750Z,8.90
2023-03-22T10:28:02.908Z,8.67
2023-03-22T10:30:38.357Z,5.90
2023-03-22T10:33:15.159Z,9.60
2023-03-22T10:35:44.890Z,12.63
2023-03-22T10:38:21.909Z,10.47
2023-03-22T10:40:51.271Z,8.93
2023-03-22T10:43:24.742Z,6.20
2023-03-22T10:45:54.827Z,6.37
2023-03-22T10:48:28.711Z,11.73
2023-03-22T10:50:59.035Z,5.90
2023-03-22T10:53:33.287Z,7.13
2023-03-22T10:56:01.502Z,7.47
2023-03-22T10:58:33.374Z,10.03
2023-03-22T11:01:06.313Z,5.40
2023-03-22T11:03:40.343Z,6.07
2023-03-22T11:06:11.046Z,7.33
2023-03-22T11:08:45.192Z,6.37
2023-03-22T11:11:23.370Z,8.50
2023-03-22T11:13:57.207Z,5.27
2023-03-22T11:16:25.470Z,7.63
2023-03-22T11:18:53.752Z,7.23
2023-03-22T11:21:25.890Z,6.40
2023-03-22T11:23:59.303Z,7.37
2023-03-22T11:26:35.676Z,6.00
2023-03-22T11:29:14.500Z,6.53
2023-03-22T11:31:58.130Z,6.53
2023-03-22T11:34:28.388Z,9.23
2023-03-22T11:36:57.840Z,6.17
2023-03-22T11:39:28.289Z,4.97
2023-03-22T11:42:01.271Z,6.70
2023-03-22T11:44:35.934Z,7.27
2023-03-22T11:47:08.671Z,5.70
2023-03-22T11:49:43.681Z,6.77
2023-03-22T11:52:17.092Z,8.43
2023-03-22T11:54:47.208Z,3.50
2023-03-22T11:57:19.110Z,6.47
2023-03-22T11:59:54.341Z,9.47
2023-03-22T12:02:26.642Z,6.17
2023-03-22T12:05:01.761Z,5.47
2023-03-22T12:07:31.223Z,6.30
2023-03-22T12:10:04.056Z,5.20
2023-03-22T12:12:35.662Z,5.07
2023-03-22T12:15:07.096Z,6.97
2023-03-22T12:17:39.623Z,7.63
2023-03-22T12:20:21.198Z,5.70
2023-03-22T12:22:53.246Z,6.20
2023-03-22T12:25:24.370Z,7.30
2023-03-22T12:27:55.940Z,6.40
2023-03-22T12:30:27.851Z,6.03
2023-03-22T12:33:03.686Z,5.23
2023-03-22T12:35:35.187Z,5.83
2023-03-22T12:38:11.917Z,7.63
2023-03-22T12:40:42.493Z,7.10
2023-03-22T12:43:16.827Z,6.57
2023-03-22T12:45:53.189Z,7.73
2023-03-22T12:48:26.290Z,5.47
2023-03-22T12:50:59.226Z,4.67
2023-03-22T12:53:33.734Z,4.70
2023-03-22T12:56:02.586Z,6.57
2023-03-22T12:58:30.607Z,7.20
2023-03-22T13:01:07.679Z,5.57
2023-03-22T13:03:40.325Z,5.10
2023-03-22T13:06:55.564Z,5.13
2023-03-22T13:09:40.462Z,6.23
2023-03-22T13:12:29.785Z,7.33
2023-03-22T13:15:04.435Z,6.20
2023-03-22T13:17:43.478Z,7.03
2023-03-22T13:20:27.047Z,8.83
2023-03-22T13:23:25.383Z,7.47
2023-03-22T13:26:06.651Z,5.83
2023-03-22T13:28:38.249Z,8.47
2023-03-22T13:31:07.532Z,7.90
2023-03-22T13:33:38.678Z,7.93
2023-03-22T13:36:22.947Z,7.63
2023-03-22T13:38:57.319Z,7.30
2023-03-22T13:41:30.516Z,8.13
2023-03-22T13:44:00.441Z,6.93
2023-03-22T13:46:44.517Z,6.23
2023-03-22T13:49:28.241Z,5.63
2023-03-22T13:51:59.878Z,6.20
2023-03-22T13:54:42.227Z,5.63
2023-03-22T13:57:34.194Z,5.03
2023-03-22T14:00:14.799Z,7.73
2023-03-22T14:02:45.026Z,5.73
2023-03-22T14:05:17.205Z,7.90
2023-03-22T14:07:49.772Z,6.90
2023-03-22T14:10:20.999Z,5.67
2023-03-22T14:12:54.804Z,5.87
2023-03-22T14:15:27.221Z,5.67
2023-03-22T14:18:00.609Z,5.37
2023-03-22T14:20:34.558Z,6.73
